Time;durP1;ratioP1;P1;durP2;ratioP2;P2;SDS_P1;SDS_P2;PMS_P1;PMS_P2;Temp;Humidity;BMP_temperature;BMP_pressure;BME280_temperature;BME280_humidity;BME280_pressure;Samples;Min_cycle;Max_cycle;Signal;HPM_P1;HPM_P2
2022/04/28 00:00:52;;;;;;;3.17;1.60;;;;;;;5.24;51.70;99893.06;4975605;28;20050;-72
2022/04/28 00:03:19;;;;;;;2.53;1.40;;;;;;;5.10;51.68;99899.53;4971590;28;20050;-72
2022/04/28 00:05:46;;;;;;;3.65;1.45;;;;;;;5.13;51.95;99902.56;4958346;28;20074;-72
2022/04/28 00:08:14;;;;;;;3.08;1.48;;;;;;;5.14;50.83;99909.69;4975686;28;20050;-72
2022/04/28 00:10:41;;;;;;;3.65;1.02;;;;;;;5.15;51.05;99905.03;4975806;28;20502;-71
2022/04/28 00:13:10;;;;;;;4.32;1.40;;;;;;;5.04;50.37;99907.00;4975899;28;20088;-71
2022/04/28 00:15:36;;;;;;;2.50;1.30;;;;;;;5.05;51.05;99911.44;4975418;28;20137;-71
2022/04/28 00:18:04;;;;;;;3.75;1.80;;;;;;;5.00;50.50;99914.22;4975392;28;20561;-70
2022/04/28 00:20:31;;;;;;;3.72;1.60;;;;;;;4.97;50.66;99920.31;4975181;28;20054;-71
2022/04/28 00:22:58;;;;;;;2.53;1.50;;;;;;;4.88;50.64;99916.50;4973934;28;20524;-71
2022/04/28 00:25:25;;;;;;;2.53;1.42;;;;;;;4.86;50.64;99921.47;4975145;28;20134;-71
2022/04/28 00:27:54;;;;;;;4.10;1.50;;;;;;;4.82;50.63;99920.41;4975310;28;20425;-70
2022/04/28 00:30:21;;;;;;;2.97;1.27;;;;;;;4.76;50.18;99918.81;4974950;28;20518;-72
2022/04/28 00:32:47;;;;;;;3.85;1.58;;;;;;;4.75;50.28;99928.19;4975284;28;20061;-72
2022/04/28 00:35:14;;;;;;;3.53;1.38;;;;;;;4.64;50.67;99926.59;4974935;28;20170;-71
2022/04/28 00:37:41;;;;;;;3.75;1.52;;;;;;;4.56;50.71;99934.66;4974301;28;20053;-72
2022/04/28 00:40:09;;;;;;;2.97;1.20;;;;;;;4.52;50.56;99936.28;4974769;28;20517;-72
2022/04/28 00:42:36;;;;;;;2.95;1.70;;;;;;;4.52;50.76;99939.06;4975065;28;20425;-70
2022/04/28 00:45:04;;;;;;;3.83;1.60;;;;;;;4.52;50.41;99944.56;4975303;28;20057;-71
2022/04/28 00:53:04;;;;;;;4.97;2.22;;;;;;;4.35;51.14;99944.91;4966966;28;20454;-70
2022/04/28 00:55:31;;;;;;;7.28;2.67;;;;;;;4.26;51.51;99957.63;4960667;28;20073;-70
2022/04/28 00:57:58;;;;;;;4.20;2.47;;;;;;;4.26;51.50;99949.38;4974659;28;20137;-71
2022/04/28 01:00:25;;;;;;;3.10;2.08;;;;;;;4.23;51.55;99946.38;4974414;28;20471;-71
2022/04/28 01:02:53;;;;;;;6.45;2.17;;;;;;;4.22;51.62;99956.56;4974705;28;20133;-70
2022/04/28 01:05:21;;;;;;;4.32;2.60;;;;;;;4.22;52.18;99951.03;4974321;28;20488;-70
2022/04/28 01:07:48;;;;;;;5.45;2.60;;;;;;;4.21;52.05;99965.09;4975211;28;20054;-70
2022/04/28 01:10:15;;;;;;;5.13;2.53;;;;;;;4.15;52.08;99964.28;4974371;28;20505;-69
2022/04/28 01:12:43;;;;;;;4.78;2.35;;;;;;;4.13;52.64;99963.75;4974264;28;20055;-69
2022/04/28 01:15:11;;;;;;;5.32;2.70;;;;;;;4.08;52.78;99966.50;4974354;28;20051;-71
2022/04/28 01:17:38;;;;;;;6.03;2.50;;;;;;;4.10;52.95;99971.72;4974444;28;20578;-70
2022/04/28 01:20:05;;;;;;;6.22;2.70;;;;;;;4.12;52.80;99973.13;4974312;28;20065;-70
2022/04/28 01:22:32;;;;;;;4.85;2.50;;;;;;;4.05;52.79;99975.31;4974427;28;20129;-70
2022/04/28 01:25:08;;;;;;;6.45;2.58;;;;;;;4.00;52.87;99969.84;4974312;28;20137;-70
2022/04/28 01:27:36;;;;;;;4.07;2.20;;;;;;;3.89;53.35;99978.38;4974038;28;20043;-71
2022/04/28 01:30:14;;;;;;;4.28;2.30;;;;;;;3.85;53.21;99971.81;4973799;28;20039;-70
2022/04/28 01:32:41;;;;;;;10.73;2.47;;;;;;;3.78;53.04;99978.41;4972678;28;20051;-70
2022/04/28 01:35:09;;;;;;;4.72;2.40;;;;;;;3.76;53.01;99982.53;4974100;28;20571;-70
2022/04/28 01:37:36;;;;;;;6.95;2.30;;;;;;;3.76;52.57;99983.38;4974531;28;20054;-72
2022/04/28 01:40:06;;;;;;;5.45;2.70;;;;;;;3.81;52.28;99982.53;4974148;28;20102;-71
2022/04/28 01:42:33;;;;;;;3.45;1.75;;;;;;;3.93;51.81;99991.31;4964372;28;20122;-72
2022/04/28 01:45:00;;;;;;;4.32;2.10;;;;;;;4.04;51.57;99992.13;4960132;28;20050;-71
2022/04/28 01:47:27;;;;;;;4.70;2.10;;;;;;;4.11;51.30;99987.97;4974137;28;20061;-71
2022/04/28 01:49:54;;;;;;;3.20;1.80;;;;;;;4.21;51.09;99989.88;4973881;28;20087;-72
2022/04/28 01:55:06;;;;;;;4.43;1.83;;;;;;;4.32;50.93;100006.06;4973562;28;20105;-71
2022/04/28 01:57:33;;;;;;;4.10;2.08;;;;;;;4.38;50.42;100004.94;4973951;28;20069;-71
2022/04/28 02:00:01;;;;;;;5.03;2.67;;;;;;;4.41;50.65;100009.88;4973614;28;20137;-71
2022/04/28 02:02:29;;;;;;;5.43;2.58;;;;;;;4.47;50.28;100008.75;4972252;28;20046;-71
2022/04/28 02:04:59;;;;;;;5.72;2.30;;;;;;;4.45;50.81;100011.00;4973583;28;20081;-71
2022/04/28 02:07:27;;;;;;;6.07;2.55;;;;;;;4.41;50.44;100003.56;4973466;28;20198;-71
2022/04/28 02:09:55;;;;;;;7.15;2.42;;;;;;;4.36;50.31;100018.19;4973512;28;20051;-70
2022/04/28 02:12:22;;;;;;;7.07;2.47;;;;;;;4.25;50.72;100010.22;4973831;28;20065;-71
2022/04/28 02:14:49;;;;;;;3.65;2.05;;;;;;;4.17;50.80;100014.38;4973757;28;20058;-65
2022/04/28 02:17:27;;;;;;;5.35;2.63;;;;;;;4.10;50.96;100010.28;4972160;28;20518;-64
2022/04/28 02:19:54;;;;;;;4.05;2.05;;;;;;;4.05;50.49;100016.59;4973570;28;20528;-64
2022/04/28 02:22:22;;;;;;;4.55;1.67;;;;;;;4.05;50.51;100016.59;4973620;28;20055;-65
2022/04/28 02:24:50;;;;;;;5.05;2.05;;;;;;;4.04;50.49;100014.13;4973313;28;20057;-65
2022/04/28 02:27:18;;;;;;;4.45;2.42;;;;;;;4.17;50.40;100010.81;4973644;28;20054;-65
2022/04/28 02:29:45;;;;;;;5.43;2.75;;;;;;;4.24;50.14;100017.69;4973528;28;20410;-64
2022/04/28 02:32:12;;;;;;;4.60;2.42;;;;;;;4.14;50.21;100020.44;4961068;28;20090;-64
2022/04/28 02:34:39;;;;;;;5.22;2.20;;;;;;;4.03;50.43;100015.25;4961693;28;20050;-65
2022/04/28 02:37:07;;;;;;;5.00;1.92;;;;;;;3.94;50.11;100016.91;4973624;28;20490;-65
2022/04/28 02:39:34;;;;;;;2.53;1.45;;;;;;;3.84;49.21;100020.50;4973457;28;20089;-70
2022/04/28 02:42:01;;;;;;;9.32;1.70;;;;;;;3.76;49.28;100021.03;4973666;28;20081;-70
2022/04/28 02:44:28;;;;;;;2.10;1.23;;;;;;;3.69;49.03;100034.28;4973545;28;20083;-70
2022/04/28 02:46:54;;;;;;;2.67;1.30;;;;;;;3.61;48.29;100029.31;4973432;28;20086;-71
2022/04/28 02:49:21;;;;;;;3.33;1.55;;;;;;;3.56;48.41;100034.84;4973601;28;20085;-70
2022/04/28 02:51:48;;;;;;;3.17;1.35;;;;;;;3.54;47.87;100045.28;4973314;28;20145;-70
2022/04/28 02:54:15;;;;;;;3.35;1.20;;;;;;;3.56;47.80;100032.88;4973061;28;20086;-70
2022/04/28 02:56:42;;;;;;;2.90;1.40;;;;;;;3.71;47.15;100032.06;4973994;28;20051;-70
2022/04/28 02:59:09;;;;;;;4.45;1.42;;;;;;;3.78;46.80;100044.47;4972028;28;20110;-70
2022/04/28 03:01:36;;;;;;;2.75;1.48;;;;;;;3.88;46.49;100049.13;4973394;28;20138;-70
2022/04/28 03:04:03;;;;;;;2.72;1.40;;;;;;;3.93;45.78;100053.81;4976464;28;20057;-70
2022/04/28 03:12:02;;;;;;;4.50;1.30;;;;;;;4.12;45.05;100055.69;4976765;28;20077;-69
2022/04/28 03:14:29;;;;;;;3.70;1.30;;;;;;;4.34;44.64;100044.34;4976488;28;20057;-69
2022/04/28 03:16:55;;;;;;;2.10;1.15;;;;;;;4.59;44.01;100058.84;4976657;28;20050;-71
2022/04/28 03:19:22;;;;;;;4.25;1.98;;;;;;;4.80;43.58;100068.69;4976561;28;20137;-71
2022/04/28 03:21:49;;;;;;;4.00;1.48;;;;;;;4.98;42.73;100059.78;4976631;28;20057;-70
2022/04/28 03:24:16;;;;;;;2.55;1.35;;;;;;;5.17;42.48;100066.31;4977015;28;20081;-71
2022/04/28 03:26:43;;;;;;;3.50;1.60;;;;;;;5.25;42.38;100060.22;4976464;28;20055;-73
2022/04/28 03:29:10;;;;;;;5.07;1.40;;;;;;;5.07;42.08;100073.81;4976071;28;20046;-73
2022/04/28 03:31:37;;;;;;;2.03;1.10;;;;;;;4.92;42.08;100076.66;4976664;28;20054;-72
2022/04/28 03:34:04;;;;;;;3.45;1.50;;;;;;;4.85;42.23;100082.47;4976947;28;20504;-72
2022/04/28 03:39:16;;;;;;;3.40;1.45;;;;;;;4.50;42.93;100085.34;4976123;28;20129;-71
2022/04/28 03:41:44;;;;;;;4.43;1.65;;;;;;;4.54;42.58;100094.72;4976012;28;20090;-71
2022/04/28 03:44:11;;;;;;;2.97;1.65;;;;;;;4.67;42.24;100094.09;4976030;28;20050;-71
2022/04/28 03:46:37;;;;;;;3.28;1.33;;;;;;;4.91;41.93;100097.88;4976035;28;20105;-71
2022/04/28 03:49:05;;;;;;;3.55;1.50;;;;;;;5.06;41.48;100095.03;4976217;28;20054;-71
2022/04/28 03:51:32;;;;;;;5.45;1.60;;;;;;;5.09;41.46;100111.00;4975949;28;20121;-71
2022/04/28 03:54:02;;;;;;;5.32;1.88;;;;;;;5.10;41.17;100111.84;4975687;28;20552;-71
2022/04/28 03:56:31;;;;;;;3.90;1.85;;;;;;;5.29;41.12;100116.44;4975821;28;20082;-71
2022/04/28 03:58:59;;;;;;;4.40;1.80;;;;;;;5.38;41.20;100109.22;4975753;28;20462;-71
2022/04/28 04:01:26;;;;;;;3.65;1.50;;;;;;;5.51;40.27;100114.09;4975667;28;20051;-71
2022/04/28 04:03:53;;;;;;;3.20;1.40;;;;;;;5.63;39.88;100111.78;4975413;28;20090;-70
2022/04/28 04:06:20;;;;;;;3.30;1.40;;;;;;;5.81;39.75;100117.75;4975606;28;20054;-71
2022/04/28 04:08:48;;;;;;;10.25;2.90;;;;;;;5.79;40.05;100125.47;4975488;28;20055;-71
2022/04/28 04:11:15;;;;;;;7.85;1.50;;;;;;;5.75;39.47;100124.41;4976023;28;20590;-72
2022/04/28 04:13:42;;;;;;;3.08;1.50;;;;;;;5.85;39.77;100130.72;4975588;28;20054;-71
2022/04/28 04:16:10;;;;;;;9.23;1.60;;;;;;;5.94;39.98;100129.00;4975656;28;20074;-72
2022/04/28 04:18:37;;;;;;;5.15;1.63;;;;;;;6.02;39.37;100130.31;4975490;28;20347;-71
2022/04/28 04:21:04;;;;;;;2.05;1.20;;;;;;;6.08;39.08;100135.53;4975484;28;20109;-71
2022/04/28 04:23:31;;;;;;;7.18;1.27;;;;;;;6.04;38.94;100139.16;4975379;28;20149;-72
2022/04/28 04:25:58;;;;;;;3.35;1.23;;;;;;;6.03;39.11;100137.47;4975442;28;20113;-71
2022/04/28 04:28:25;;;;;;;3.58;1.30;;;;;;;5.88;39.01;100143.94;4975243;28;20716;-73
2022/04/28 04:33:38;;;;;;;3.10;1.20;;;;;;;5.65;38.98;100152.91;4975143;28;20055;-70
2022/04/28 04:36:05;;;;;;;11.57;1.40;;;;;;;5.61;38.95;100154.59;4975362;28;20135;-70
2022/04/28 04:38:32;;;;;;;2.65;1.13;;;;;;;5.57;38.57;100151.56;4975025;28;20057;-70
2022/04/28 04:40:59;;;;;;;5.18;1.30;;;;;;;5.65;39.11;100150.16;4974966;28;20047;-71
2022/04/28 04:43:26;;;;;;;13.15;1.67;;;;;;;5.77;38.51;100145.09;4975291;28;20050;-72
2022/04/28 04:45:53;;;;;;;7.30;1.60;;;;;;;5.92;38.55;100155.25;4974752;28;20054;-66
2022/04/28 04:48:21;;;;;;;2.67;1.15;;;;;;;6.09;38.16;100158.41;4974825;28;20145;-65
2022/04/28 04:50:48;;;;;;;3.58;1.30;;;;;;;6.09;38.04;100158.41;4974760;28;20076;-66
2022/04/28 04:53:15;;;;;;;2.75;1.40;;;;;;;6.23;37.99;100153.88;4973871;28;20046;-65
2022/04/28 04:55:42;;;;;;;6.07;1.33;;;;;;;6.33;37.89;100160.16;4974302;28;20060;-64
2022/04/28 04:58:09;;;;;;;3.90;1.30;;;;;;;6.51;36.91;100161.38;4974738;28;20053;-65
2022/04/28 05:00:36;;;;;;;6.13;1.38;;;;;;;6.69;36.61;100166.19;4974808;28;20521;-65
2022/04/28 05:03:03;;;;;;;6.03;1.92;;;;;;;6.84;36.65;100172.34;4974954;28;20141;-65
2022/04/28 05:05:30;;;;;;;2.70;1.35;;;;;;;6.79;36.35;100166.06;4974664;28;20090;-65
2022/04/28 05:07:57;;;;;;;2.15;1.10;;;;;;;6.90;36.05;100170.38;4974554;28;20137;-65
2022/04/28 05:10:24;;;;;;;8.90;1.10;;;;;;;7.03;36.47;100175.19;4974532;28;20055;-66
2022/04/28 05:12:51;;;;;;;5.07;1.40;;;;;;;7.03;35.81;100177.97;4974630;28;20066;-66
2022/04/28 05:15:18;;;;;;;5.82;1.17;;;;;;;6.98;35.68;100180.78;4974321;28;20063;-66
2022/04/28 05:17:45;;;;;;;2.45;1.20;;;;;;;7.04;35.58;100177.66;4974670;28;20141;-64
2022/04/28 05:20:13;;;;;;;11.88;1.45;;;;;;;7.14;35.31;100176.75;4972942;28;20050;-65
2022/04/28 05:22:40;;;;;;;6.32;1.75;;;;;;;7.17;35.47;100178.91;4974546;28;20137;-65
2022/04/28 05:25:07;;;;;;;5.32;1.40;;;;;;;7.34;35.03;100182.84;4973562;28;20133;-66
2022/04/28 05:27:34;;;;;;;15.63;1.30;;;;;;;7.61;34.41;100173.88;4974155;28;20053;-65
2022/04/28 05:30:02;;;;;;;6.18;1.20;;;;;;;7.70;34.22;100183.22;4973937;28;20138;-64
2022/04/28 05:32:30;;;;;;;4.82;1.40;;;;;;;7.76;33.76;100182.00;4983488;28;20124;-65
2022/04/28 05:34:57;;;;;;;3.45;1.27;;;;;;;7.98;33.89;100175.84;4979900;28;20059;-65
2022/04/28 05:37:25;;;;;;;3.17;1.23;;;;;;;8.25;33.33;100174.06;4954832;28;20130;-65
2022/04/28 05:39:52;;;;;;;7.85;1.58;;;;;;;8.59;33.40;100177.34;4953716;29;20510;-65
2022/04/28 05:42:19;;;;;;;2.30;1.20;;;;;;;9.61;31.48;100179.78;4954733;28;20054;-65
2022/04/28 05:47:32;;;;;;;3.53;1.10;;;;;;;13.85;25.78;100177.47;4954806;28;20482;-65
2022/04/28 05:49:59;;;;;;;2.58;1.33;;;;;;;16.48;23.11;100171.97;4954426;28;20061;-65
2022/04/28 05:52:27;;;;;;;4.78;1.17;;;;;;;18.53;21.39;100163.63;4954459;28;20047;-65
2022/04/28 05:54:54;;;;;;;2.78;1.23;;;;;;;19.79;20.05;100171.69;4958613;28;20051;-64
2022/04/28 05:57:22;;;;;;;4.32;1.27;;;;;;;19.36;19.46;100162.88;4973911;28;20399;-65
2022/04/28 05:59:49;;;;;;;4.13;1.65;;;;;;;18.65;20.25;100166.28;4973700;28;20518;-65
2022/04/28 06:02:16;;;;;;;4.40;2.00;;;;;;;19.13;19.73;100160.00;4973890;28;20050;-64
2022/04/28 06:04:43;;;;;;;2.53;1.20;;;;;;;19.20;19.40;100154.50;4972501;28;20101;-64
2022/04/28 06:07:10;;;;;;;3.30;1.40;;;;;;;17.35;20.34;100162.38;4972508;28;20074;-65
2022/04/28 06:09:37;;;;;;;4.85;1.88;;;;;;;16.03;21.07;100161.78;4972392;28;20086;-64
2022/04/28 06:12:04;;;;;;;2.13;1.20;;;;;;;16.37;20.63;100164.03;4973651;28;20158;-65
2022/04/28 06:14:31;;;;;;;3.50;1.23;;;;;;;18.67;18.75;100163.91;4972379;28;20063;-65
2022/04/28 06:16:58;;;;;;;4.25;1.42;;;;;;;18.85;17.83;100158.63;4973701;28;20465;-65
2022/04/28 06:19:25;;;;;;;3.17;1.27;;;;;;;18.46;18.61;100168.28;4973809;28;20467;-71
2022/04/28 06:21:53;;;;;;;3.03;1.20;;;;;;;20.74;16.72;100169.41;4974090;28;20055;-73
2022/04/28 06:24:19;;;;;;;5.30;1.60;;;;;;;21.28;15.78;100175.31;4973417;28;20137;-71
2022/04/28 06:26:46;;;;;;;9.20;1.50;;;;;;;19.90;16.98;100175.47;4973218;28;20135;-71
2022/04/28 06:29:13;;;;;;;2.35;1.45;;;;;;;20.76;15.97;100178.34;4973580;28;20049;-66
2022/04/28 06:31:40;;;;;;;4.55;1.60;;;;;;;21.84;14.98;100175.88;4973721;28;20142;-65
2022/04/28 06:34:07;;;;;;;3.50;1.92;;;;;;;22.47;14.78;100184.78;4973722;28;20045;-65
2022/04/28 06:36:34;;;;;;;2.05;1.35;;;;;;;24.35;13.62;100177.09;4974860;28;20055;-65
2022/04/28 06:39:02;;;;;;;2.88;1.42;;;;;;;25.84;12.35;100178.00;4977339;28;20048;-64
2022/04/28 06:41:29;;;;;;;4.15;1.52;;;;;;;25.17;12.30;100181.28;4977296;28;20146;-64
2022/04/28 06:43:56;;;;;;;3.03;1.40;;;;;;;22.16;13.82;100182.59;4975989;28;20558;-65
2022/04/28 06:46:23;;;;;;;3.05;1.90;;;;;;;21.54;14.05;100178.81;4977481;28;20046;-65
2022/04/28 06:48:50;;;;;;;2.90;1.38;;;;;;;21.10;14.24;100191.28;4976987;28;20054;-65
2022/04/28 06:51:17;;;;;;;2.17;1.30;;;;;;;21.72;13.74;100181.81;4977130;28;20055;-65
2022/04/28 06:53:44;;;;;;;5.35;1.40;;;;;;;21.74;13.66;100187.94;4976852;28;20057;-65
2022/04/28 06:56:11;;;;;;;5.72;1.60;;;;;;;21.09;14.09;100195.34;4976637;28;20501;-64
2022/04/28 06:58:38;;;;;;;3.40;1.58;;;;;;;21.06;13.89;100184.78;4976878;28;20577;-65
2022/04/28 07:01:06;;;;;;;5.32;1.60;;;;;;;19.96;14.29;100182.44;4976824;28;20462;-65
2022/04/28 07:03:33;;;;;;;3.20;1.67;;;;;;;21.92;13.12;100173.91;4976637;28;20510;-66
2022/04/28 07:06:00;;;;;;;5.18;1.75;;;;;;;23.63;12.54;100173.06;4976624;28;20053;-65
2022/04/28 07:08:27;;;;;;;6.72;1.40;;;;;;;24.08;11.93;100172.25;4977244;28;20046;-65
2022/04/28 07:10:54;;;;;;;3.05;1.70;;;;;;;24.97;11.24;100171.59;4976488;28;20138;-65
2022/04/28 07:13:21;;;;;;;2.88;1.73;;;;;;;25.09;11.23;100165.44;4976429;28;20577;-65
2022/04/28 07:15:48;;;;;;;3.05;1.70;;;;;;;26.21;10.68;100160.97;4976602;28;20477;-65
2022/04/28 07:18:16;;;;;;;6.10;1.90;;;;;;;28.99;9.55;100163.97;4976529;28;20046;-65
2022/04/28 07:20:44;;;;;;;8.55;2.25;;;;;;;31.43;8.47;100160.81;4976489;28;20070;-65
2022/04/28 07:23:11;;;;;;;3.42;1.20;;;;;;;31.19;8.35;100173.06;4976478;28;20050;-65
2022/04/28 07:25:40;;;;;;;3.35;1.33;;;;;;;32.50;7.44;100171.19;4976802;28;20062;-66
2022/04/28 07:28:07;;;;;;;2.47;1.30;;;;;;;33.93;7.04;100180.50;4976349;28;20625;-65
2022/04/28 07:30:33;;;;;;;3.45;1.50;;;;;;;34.72;6.49;100175.34;4976558;28;20089;-64
2022/04/28 07:33:00;;;;;;;4.93;1.75;;;;;;;36.02;5.72;100183.59;4976522;28;20577;-65
2022/04/28 07:35:27;;;;;;;3.08;1.83;;;;;;;37.17;5.50;100192.44;4976214;28;20055;-66
2022/04/28 07:37:55;;;;;;;4.82;1.83;;;;;;;37.20;5.17;100183.56;4976221;28;20050;-65
2022/04/28 07:40:25;;;;;;;5.15;1.58;;;;;;;37.98;4.93;100192.34;4976247;28;20054;-65
2022/04/28 07:42:52;;;;;;;5.93;1.60;;;;;;;38.94;4.73;100193.16;4976451;28;20097;-65
2022/04/28 07:45:19;;;;;;;3.15;1.50;;;;;;;38.50;4.54;100189.66;4976242;28;20061;-65
2022/04/28 07:47:46;;;;;;;3.08;1.70;;;;;;;39.38;4.48;100185.75;4975358;28;20133;-64
2022/04/28 07:50:13;;;;;;;2.95;1.90;;;;;;;36.79;5.01;100190.38;4975714;28;20055;-65
2022/04/28 07:52:40;;;;;;;2.33;1.35;;;;;;;38.11;4.65;100186.22;4976025;28;20425;-65
2022/04/28 07:55:08;;;;;;;8.50;1.60;;;;;;;35.59;5.28;100178.31;4975415;28;20059;-66
2022/04/28 07:57:37;;;;;;;3.17;1.50;;;;;;;35.67;5.23;100187.47;4975912;28;20049;-65
2022/04/28 08:00:07;;;;;;;19.17;2.97;;;;;;;33.38;6.21;100188.06;4975717;28;20137;-64
2022/04/28 08:02:36;;;;;;;4.40;1.58;;;;;;;32.37;6.52;100195.53;4975994;28;20141;-65
2022/04/28 08:05:04;;;;;;;10.98;2.90;;;;;;;33.67;6.04;100177.00;4975342;28;20055;-66
2022/04/28 08:07:33;;;;;;;2.90;1.52;;;;;;;36.30;4.95;100172.69;4975955;28;20114;-65
2022/04/28 08:10:01;;;;;;;2.65;1.08;;;;;;;34.65;5.28;100174.88;4975724;28;20426;-65
2022/04/28 08:12:28;;;;;;;6.85;1.70;;;;;;;32.58;6.26;100177.50;4975629;28;20054;-66
2022/04/28 08:15:15;;;;;;;5.53;2.08;;;;;;;34.90;5.49;100171.69;4975915;28;20602;-65
2022/04/28 08:17:42;;;;;;;4.00;1.92;;;;;;;37.32;4.79;100172.97;4975239;28;20086;-66
2022/04/28 08:20:09;;;;;;;5.30;1.50;;;;;;;37.87;4.20;100174.75;4975163;28;20065;-66
2022/04/28 08:22:36;;;;;;;16.00;7.40;;;;;;;36.03;5.10;100176.53;4975790;28;20058;-66
2022/04/28 08:25:03;;;;;;;4.53;1.77;;;;;;;37.61;4.34;100175.84;4975138;28;20146;-65
2022/04/28 08:27:30;;;;;;;2.75;1.60;;;;;;;37.58;4.59;100180.56;4975351;28;20129;-66
2022/04/28 08:29:57;;;;;;;5.78;1.55;;;;;;;38.60;4.06;100167.91;4975312;28;20101;-66
2022/04/28 08:32:24;;;;;;;5.50;1.98;;;;;;;39.25;3.53;100172.91;4975551;28;20066;-66
2022/04/28 08:34:51;;;;;;;3.85;1.67;;;;;;;39.54;3.53;100173.47;4974879;28;20137;-67
2022/04/28 08:37:18;;;;;;;7.80;1.25;;;;;;;39.93;3.32;100165.09;4975526;28;20057;-66
2022/04/28 08:39:45;;;;;;;3.70;1.02;;;;;;;33.67;5.54;100167.53;4975007;28;20046;-65
2022/04/28 08:42:15;;;;;;;3.08;1.33;;;;;;;28.37;7.62;100166.84;4975428;28;20513;-65
2022/04/28 08:44:44;;;;;;;5.30;2.20;;;;;;;25.45;8.94;100175.41;4973719;28;20506;-65
2022/04/28 08:47:12;;;;;;;9.07;1.52;;;;;;;22.93;10.42;100179.38;4974997;28;20081;-66
2022/04/28 08:49:43;;;;;;;7.00;2.00;;;;;;;21.02;11.17;100178.28;4974495;28;20145;-64
2022/04/28 08:52:12;;;;;;;98.78;37.75;;;;;;;20.40;11.55;100184.72;4974812;28;20057;-65
2022/04/28 08:54:42;;;;;;;3.47;2.37;;;;;;;22.20;10.93;100176.94;4974726;28;20066;-65
2022/04/28 08:57:11;;;;;;;2.67;1.77;;;;;;;25.93;9.08;100167.69;4975156;28;20089;-66
2022/04/28 08:59:38;;;;;;;2.63;1.17;;;;;;;29.59;7.32;100157.69;4973969;28;20133;-66
2022/04/28 09:02:05;;;;;;;3.08;1.50;;;;;;;31.76;6.59;100156.44;4975230;28;20447;-66
2022/04/28 09:04:32;;;;;;;3.15;1.58;;;;;;;34.15;5.62;100163.88;4974480;28;20085;-67
2022/04/28 09:07:00;;;;;;;7.78;1.50;;;;;;;36.33;4.99;100155.13;4974848;28;20481;-65
2022/04/28 09:09:28;;;;;;;3.92;1.70;;;;;;;37.61;4.57;100149.72;4974561;28;20077;-66
2022/04/28 09:12:02;;;;;;;2.72;1.90;;;;;;;37.63;4.52;100159.53;4974576;28;20055;-66
2022/04/28 09:14:30;;;;;;;6.97;1.83;;;;;;;39.25;3.95;100155.44;4974560;28;20105;-66
2022/04/28 09:17:04;;;;;;;3.67;1.58;;;;;;;39.46;4.02;100160.69;4973104;28;20425;-66
2022/04/28 09:19:33;;;;;;;5.30;1.30;;;;;;;37.70;4.49;100153.34;4974112;28;20093;-71
2022/04/28 09:22:06;;;;;;;3.38;1.40;;;;;;;32.81;6.31;100157.69;4974464;28;20129;-71
2022/04/28 09:24:33;;;;;;;8.27;1.60;;;;;;;30.65;6.93;100163.56;4974186;28;20525;-71
2022/04/28 09:27:01;;;;;;;4.05;2.25;;;;;;;29.13;7.38;100165.75;4974333;28;20509;-72
2022/04/28 09:29:30;;;;;;;5.05;1.85;;;;;;;26.22;8.65;100160.53;4974303;28;20089;-71
2022/04/28 09:31:57;;;;;;;;;;;;;;;28.30;8.15;100164.13;4974703;28;20082;-72
2022/04/28 09:34:46;;;;;;;2.97;1.30;;;;;;;27.84;7.88;100155.53;4973696;28;20389;-72
2022/04/28 09:37:19;;;;;;;5.60;2.00;;;;;;;26.08;8.62;100154.97;4974201;28;20425;-72
2022/04/28 09:42:41;;;;;;;2.85;1.35;;;;;;;22.09;10.74;100159.06;4973976;28;20142;-72
2022/04/28 09:45:11;;;;;;;3.50;1.73;;;;;;;19.91;11.76;100156.53;4973997;28;20141;-71
2022/04/28 09:47:38;;;;;;;6.43;2.22;;;;;;;18.35;13.16;100162.41;4974053;28;20074;-72
2022/04/28 09:50:15;;;;;;;4.07;1.75;;;;;;;17.49;13.69;100162.75;4973897;28;20073;-72
2022/04/28 09:52:44;;;;;;;2.33;1.20;;;;;;;16.94;14.02;100174.13;4974050;28;20078;-71
2022/04/28 09:55:11;;;;;;;4.40;2.13;;;;;;;16.23;14.55;100176.84;4973587;28;20086;-71
2022/04/28 09:57:39;;;;;;;3.67;1.70;;;;;;;15.76;15.19;100184.97;4973806;28;20413;-72
2022/04/28 10:00:06;;;;;;;7.97;1.98;;;;;;;15.10;15.95;100174.25;4956171;28;20046;-72
2022/04/28 10:02:34;;;;;;;6.38;1.80;;;;;;;14.66;15.95;100184.28;4973903;28;20135;-70
2022/04/28 10:05:03;;;;;;;2.97;1.67;;;;;;;14.08;16.76;100184.41;4973607;28;20473;-71
2022/04/28 10:07:31;;;;;;;3.63;2.10;;;;;;;13.93;16.72;100177.44;4974529;28;20082;-72
2022/04/28 10:09:59;;;;;;;4.50;1.75;;;;;;;13.79;16.47;100176.03;4974088;28;20089;-72
2022/04/28 10:12:27;;;;;;;3.92;1.60;;;;;;;13.72;17.08;100184.16;4977785;28;20051;-72
2022/04/28 10:14:55;;;;;;;3.65;1.70;;;;;;;13.55;17.08;100181.44;4978018;28;20054;-71
2022/04/28 10:17:40;;;;;;;3.38;1.60;;;;;;;13.61;17.14;100177.31;4977654;28;20054;-71
2022/04/28 10:20:20;;;;;;;4.30;1.60;;;;;;;13.74;17.41;100168.66;4977354;28;20453;-71
2022/04/28 10:23:09;;;;;;;;;;;;;;;13.76;17.08;100173.91;4978190;28;20509;-71
2022/04/28 10:34:13;;;;;;;5.25;2.00;;;;;;;13.49;18.14;100171.59;4977688;28;20463;-72
2022/04/28 10:36:52;;;;;;;2.85;1.75;;;;;;;13.35;18.67;100171.03;4977075;28;20082;-71
2022/04/28 10:39:38;;;;;;;4.50;2.38;;;;;;;13.32;18.28;100178.09;4976903;28;20055;-72
2022/04/28 10:42:40;;;;;;;6.50;1.55;;;;;;;13.56;18.13;100169.13;4977439;28;20062;-72
2022/04/28 10:45:22;;;;;;;9.82;2.53;;;;;;;13.59;18.06;100172.03;4976945;28;20509;-72
2022/04/28 10:48:24;;;;;;;6.35;3.55;;;;;;;13.09;18.83;100168.34;4977225;28;20055;-72
2022/04/28 10:51:05;;;;;;;4.75;1.63;;;;;;;12.85;19.02;100168.88;4976995;28;20077;-76
2022/04/28 10:53:34;;;;;;;5.50;1.67;;;;;;;12.87;19.31;100169.38;4977072;28;20077;-72
2022/04/28 10:56:12;;;;;;;11.23;1.90;;;;;;;12.86;19.42;100164.13;4975962;28;20062;-73
2022/04/28 10:58:40;;;;;;;4.30;1.65;;;;;;;12.85;19.28;100160.50;4976912;28;20137;-72
2022/04/28 11:01:07;;;;;;;5.15;2.00;;;;;;;12.68;19.35;100163.31;4977068;28;20086;-72
2022/04/28 11:03:55;;;;;;;3.90;1.48;;;;;;;12.44;19.48;100170.59;4976668;28;20141;-71
2022/04/28 11:06:46;;;;;;;5.38;1.90;;;;;;;12.33;19.46;100166.50;4976734;28;20102;-71
2022/04/28 11:09:13;;;;;;;4.53;1.60;;;;;;;12.26;19.39;100161.41;4976794;28;20046;-71
2022/04/28 11:11:47;;;;;;;3.08;1.60;;;;;;;12.42;19.37;100159.75;4976494;28;20069;-72
2022/04/28 11:14:15;;;;;;;6.22;1.95;;;;;;;12.46;19.01;100155.16;4977064;28;20051;-71
2022/04/28 11:16:43;;;;;;;8.40;1.80;;;;;;;12.48;19.52;100146.44;4976835;28;20054;-72
2022/04/28 11:19:12;;;;;;;5.75;1.55;;;;;;;12.38;19.88;100139.22;4975473;28;20053;-73
2022/04/28 11:21:39;;;;;;;3.85;1.80;;;;;;;11.97;21.31;100147.31;4975778;28;20133;-72
2022/04/28 11:24:07;;;;;;;4.82;1.52;;;;;;;11.68;21.02;100144.31;4976346;28;20505;-72
2022/04/28 11:26:36;;;;;;;9.43;1.60;;;;;;;11.76;20.63;100151.88;4976843;28;20054;-72
2022/04/28 11:29:08;;;;;;;5.15;1.52;;;;;;;11.81;21.40;100154.50;4960426;28;20047;-71
2022/04/28 11:31:45;;;;;;;3.13;1.33;;;;;;;11.94;20.38;100147.97;4957174;28;20078;-71
2022/04/28 11:34:12;;;;;;;4.55;2.10;;;;;;;12.06;20.63;100144.50;4956998;28;20139;-71
2022/04/28 11:36:41;;;;;;;2.75;1.40;;;;;;;12.16;20.80;100150.59;4956852;28;20047;-71
2022/04/28 11:39:09;;;;;;;3.40;1.77;;;;;;;12.30;20.06;100153.19;4974891;28;20078;-72
2022/04/28 11:41:42;;;;;;;2.63;1.63;;;;;;;12.34;19.53;100131.84;4975213;28;20086;-72
2022/04/28 11:44:16;;;;;;;199.98;74.50;;;;;;;12.51;19.43;100140.22;4976234;28;20070;-71
2022/04/28 11:46:51;;;;;;;5.90;3.13;;;;;;;12.62;19.41;100130.34;4975880;28;20065;-72
2022/04/28 11:49:20;;;;;;;5.78;2.22;;;;;;;12.64;19.44;100128.84;4975821;28;20081;-71
2022/04/28 11:51:47;;;;;;;3.97;2.05;;;;;;;12.77;19.32;100125.03;4976077;28;20058;-71
2022/04/28 11:54:23;;;;;;;6.68;1.90;;;;;;;12.86;19.59;100120.28;4975698;28;20430;-73
2022/04/28 11:56:50;;;;;;;3.05;1.42;;;;;;;12.84;19.40;100128.16;4974897;28;20058;-71
2022/04/28 11:59:18;;;;;;;3.13;1.60;;;;;;;12.75;19.70;100124.56;4975848;28;20546;-71
2022/04/28 12:01:45;;;;;;;4.70;1.90;;;;;;;12.66;19.90;100120.16;4974430;28;20093;-72
2022/04/28 12:04:16;;;;;;;3.45;1.73;;;;;;;12.69;19.38;100120.31;4975454;28;20109;-76
2022/04/28 12:06:48;;;;;;;3.45;1.60;;;;;;;12.54;19.79;100117.22;4975931;28;20477;-73
2022/04/28 12:14:55;;;;;;;7.03;2.05;;;;;;;12.17;20.46;100112.38;4975644;28;20146;-72
2022/04/28 12:20:11;;;;;;;4.07;1.63;;;;;;;12.36;19.87;100108.06;4975489;28;20097;-70